Time,TemperatureF,DewpointF,PressureIn,WindDirection,WindDirectionDegrees,WindSpeedMPH,WindSpeedGustMPH,Humidity,HourlyPrecipIn,Conditions,Clouds,dailyrainin,SoftwareType,DateUTC
2013-01-17 00:00:00,42.2,41.4,30.06,NNE,21,0.0,0.0,97,0.00,,,0.00,Wunderground v.1.15,2013-01-17 05:00:00,
2013-01-17 00:04:00,42.2,41.4,30.05,NNE,21,0.0,0.0,97,0.00,,,0.00,Wunderground v.1.15,2013-01-17 05:04:00,
2013-01-17 00:10:00,42.2,41.4,30.05,NNE,21,0.0,0.0,97,0.00,,,0.00,Wunderground v.1.15,2013-01-17 05:10:00,
2013-01-17 00:20:00,42.3,41.5,30.04,NNE,25,0.0,0.0,97,0.00,,,0.01,Wunderground v.1.15,2013-01-17 05:20:00,
2013-01-17 00:25:00,42.3,41.5,30.03,NNE,25,0.0,0.0,97,0.00,,,0.01,Wunderground v.1.15,2013-01-17 05:25:00,
2013-01-17 00:34:00,42.4,41.6,30.02,NNE,25,0.0,0.0,97,0.00,,,0.01,Wunderground v.1.15,2013-01-17 05:34:00,
2013-01-17 00:39:00,42.4,41.6,30.02,NNE,25,0.0,1.0,97,0.00,,,0.01,Wunderground v.1.15,2013-01-17 05:39:00,
2013-01-17 00:44:00,42.4,41.6,30.02,NNE,25,1.0,1.0,97,0.00,,,0.01,Wunderground v.1.15,2013-01-17 05:44:00,
2013-01-17 00:49:00,42.4,41.6,30.02,NNE,16,1.0,1.0,97,0.00,,,0.01,Wunderground v.1.15,2013-01-17 05:49:00,
2013-01-17 00:54:00,42.5,41.7,30.02,NNE,13,0.0,1.0,97,0.00,,,0.01,Wunderground v.1.15,2013-01-17 05:54:00,
2013-01-17 01:00:00,42.5,41.7,30.03,NNE,16,0.0,2.0,97,0.00,,,0.01,Wunderground v.1.15,2013-01-17 06:00:00,
2013-01-17 01:09:00,42.5,41.7,30.02,NNE,21,1.0,1.0,97,0.00,,,0.01,Wunderground v.1.15,2013-01-17 06:09:00,
2013-01-17 01:14:00,42.5,41.7,30.01,ENE,67,1.0,1.0,97,0.00,,,0.01,Wunderground v.1.15,2013-01-17 06:14:00,
2013-01-17 01:19:00,42.5,41.7,30.02,ENE,67,1.0,1.0,97,0.00,,,0.01,Wunderground v.1.15,2013-01-17 06:19:00,
2013-01-17 01:29:00,42.6,41.8,30.04,ENE,67,0.0,0.0,97,0.00,,,0.01,Wunderground v.1.15,2013-01-17 06:29:00,
2013-01-17 01:34:00,42.6,41.8,30.04,ENE,67,0.0,0.0,97,0.00,,,0.01,Wunderground v.1.15,2013-01-17 06:34:00,
2013-01-17 01:39:00,42.6,41.8,30.02,ENE,67,0.0,0.0,97,0.00,,,0.01,Wunderground v.1.15,2013-01-17 06:39:00,
2013-01-17 01:44:00,42.7,42.2,30.02,ENE,67,1.0,1.0,98,0.00,,,0.01,Wunderground v.1.15,2013-01-17 06:44:00,
2013-01-17 01:49:00,42.7,42.2,30.02,ENE,67,1.0,1.0,98,0.00,,,0.01,Wunderground v.1.15,2013-01-17 06:49:00,
2013-01-17 02:00:00,42.7,42.2,30.01,North,1,1.0,2.0,98,0.00,,,0.01,Wunderground v.1.15,2013-01-17 07:00:00,
2013-01-17 02:09:00,42.7,42.2,30.00,NNE,21,1.0,1.0,98,0.00,,,0.01,Wunderground v.1.15,2013-01-17 07:09:00,
2013-01-17 02:14:00,42.7,42.2,30.00,North,10,1.0,2.0,98,0.00,,,0.01,Wunderground v.1.15,2013-01-17 07:14:00,
2013-01-17 02:19:00,42.7,42.2,29.99,NNW,342,1.0,4.0,98,0.00,,,0.01,Wunderground v.1.15,2013-01-17 07:19:00,
2013-01-17 02:24:00,42.7,41.9,30.01,North,352,1.0,4.0,97,0.00,,,0.01,Wunderground v.1.15,2013-01-17 07:24:00,
2013-01-17 02:34:00,42.7,42.2,30.02,North,352,1.0,1.0,98,0.00,,,0.01,Wunderground v.1.15,2013-01-17 07:34:00,
2013-01-17 02:40:00,42.7,42.2,30.03,ENE,67,0.0,0.0,98,0.00,,,0.01,Wunderground v.1.15,2013-01-17 07:40:00,
2013-01-17 02:45:00,42.7,42.2,30.01,NNE,33,1.0,1.0,98,0.00,,,0.01,Wunderground v.1.15,2013-01-17 07:45:00,
2013-01-17 02:54:00,42.8,42.3,29.99,North,4,2.0,5.0,98,0.00,,,0.01,Wunderground v.1.15,2013-01-17 07:54:00,
2013-01-17 03:00:00,42.8,42.3,30.01,ENE,65,3.0,3.0,98,0.00,,,0.01,Wunderground v.1.15,2013-01-17 08:00:00,
2013-01-17 03:09:00,42.8,42.3,30.03,NNE,19,1.0,1.0,98,0.00,,,0.01,Wunderground v.1.15,2013-01-17 08:09:00,
2013-01-17 03:15:00,42.8,42.3,30.01,NNE,21,2.0,2.0,98,0.00,,,0.01,Wunderground v.1.15,2013-01-17 08:15:00,
2013-01-17 03:24:00,42.8,42.0,29.99,NNE,23,3.0,3.0,97,0.00,,,0.02,Wunderground v.1.15,2013-01-17 08:24:00,
2013-01-17 03:29:00,42.8,42.0,30.00,NW,308,2.0,2.0,97,0.00,,,0.02,Wunderground v.1.15,2013-01-17 08:29:00,
2013-01-17 03:34:00,42.8,42.0,30.01,NNE,16,2.0,2.0,97,0.00,,,0.02,Wunderground v.1.15,2013-01-17 08:34:00,
2013-01-17 03:39:00,42.8,42.0,30.01,NE,41,2.0,2.0,97,0.00,,,0.02,Wunderground v.1.15,2013-01-17 08:39:00,
2013-01-17 03:44:00,42.8,42.0,30.01,NE,50,2.0,2.0,97,0.00,,,0.02,Wunderground v.1.15,2013-01-17 08:44:00,
2013-01-17 03:49:00,42.8,42.0,30.00,NE,39,2.0,3.0,97,0.00,,,0.02,Wunderground v.1.15,2013-01-17 08:49:00,
2013-01-17 03:55:00,42.8,42.0,29.99,NE,38,2.0,3.0,97,0.00,,,0.02,Wunderground v.1.15,2013-01-17 08:55:00,
2013-01-17 04:00:00,42.8,42.0,30.00,NNE,13,3.0,3.0,97,0.00,,,0.02,Wunderground v.1.15,2013-01-17 09:00:00,
2013-01-17 04:09:00,42.7,41.9,30.00,NNW,347,2.0,2.0,97,0.00,,,0.02,Wunderground v.1.15,2013-01-17 09:09:00,
2013-01-17 04:19:00,42.6,41.5,29.98,ENE,65,2.0,2.0,96,0.00,,,0.02,Wunderground v.1.15,2013-01-17 09:19:00,
2013-01-17 04:24:00,42.6,41.5,29.98,NE,36,3.0,3.0,96,0.00,,,0.02,Wunderground v.1.15,2013-01-17 09:24:00,
2013-01-17 04:29:00,42.6,41.5,29.98,NNE,26,2.0,2.0,96,0.00,,,0.02,Wunderground v.1.15,2013-01-17 09:29:00,
2013-01-17 04:35:00,42.5,41.4,29.98,NE,44,2.0,2.0,96,0.00,,,0.02,Wunderground v.1.15,2013-01-17 09:35:00,
2013-01-17 04:40:00,42.5,41.4,29.99,NNE,19,2.0,2.0,96,0.00,,,0.02,Wunderground v.1.15,2013-01-17 09:40:00,
2013-01-17 04:49:00,42.4,41.3,29.98,NNE,23,2.0,2.0,96,0.00,,,0.02,Wunderground v.1.15,2013-01-17 09:49:00,
2013-01-17 04:54:00,42.4,41.3,29.99,NE,36,2.0,2.0,96,0.00,,,0.02,Wunderground v.1.15,2013-01-17 09:54:00,
2013-01-17 05:00:00,42.4,41.3,29.99,NE,47,1.0,1.0,96,0.00,,,0.02,Wunderground v.1.15,2013-01-17 10:00:00,
2013-01-17 05:09:00,42.3,41.2,29.98,NE,44,1.0,3.0,96,0.00,,,0.02,Wunderground v.1.15,2013-01-17 10:09:00,
2013-01-17 05:15:00,42.3,41.2,29.98,NNE,15,2.0,4.0,96,0.00,,,0.02,Wunderground v.1.15,2013-01-17 10:15:00,
2013-01-17 05:20:00,42.2,40.9,29.98,NE,53,2.0,2.0,95,0.00,,,0.02,Wunderground v.1.15,2013-01-17 10:20:00,
2013-01-17 05:29:00,42.0,40.1,29.98,NNE,33,3.0,3.0,93,0.00,,,0.02,Wunderground v.1.15,2013-01-17 10:29:00,
2013-01-17 05:34:00,41.9,39.5,29.98,NNE,14,3.0,3.0,91,0.00,,,0.02,Wunderground v.1.15,2013-01-17 10:34:00,
2013-01-17 05:39:00,41.8,39.4,29.98,North,2,2.0,2.0,91,0.00,,,0.02,Wunderground v.1.15,2013-01-17 10:39:00,
2013-01-17 05:44:00,41.7,39.0,29.98,NE,47,1.0,2.0,90,0.00,,,0.02,Wunderground v.1.15,2013-01-17 10:44:00,
2013-01-17 05:49:00,41.6,38.6,29.97,NE,45,2.0,2.0,89,0.00,,,0.02,Wunderground v.1.15,2013-01-17 10:49:00,
2013-01-17 05:54:00,41.5,38.5,29.97,NE,54,3.0,6.0,89,0.00,,,0.02,Wunderground v.1.15,2013-01-17 10:54:00,
2013-01-17 06:00:00,41.4,38.1,29.96,NW,326,3.0,4.0,88,0.00,,,0.02,Wunderground v.1.15,2013-01-17 11:00:00,
2013-01-17 06:09:00,41.2,37.6,29.96,NNE,29,4.0,6.0,87,0.00,,,0.02,Wunderground v.1.15,2013-01-17 11:09:00,
2013-01-17 06:14:00,41.1,37.5,29.96,NE,38,3.0,6.0,87,0.00,,,0.02,Wunderground v.1.15,2013-01-17 11:14:00,
2013-01-17 06:19:00,41.0,37.1,29.96,NNE,29,3.0,3.0,86,0.00,,,0.02,Wunderground v.1.15,2013-01-17 11:19:00,
2013-01-17 06:24:00,40.9,37.3,29.95,North,6,2.0,4.0,87,0.00,,,0.02,Wunderground v.1.15,2013-01-17 11:24:00,
2013-01-17 06:29:00,40.8,37.2,29.95,ENE,63,2.0,4.0,87,0.00,,,0.02,Wunderground v.1.15,2013-01-17 11:29:00,
2013-01-17 06:40:00,40.7,36.8,29.97,North,11,2.0,4.0,86,0.00,,,0.02,Wunderground v.1.15,2013-01-17 11:40:00,
2013-01-17 06:45:00,40.7,36.8,29.97,NE,36,2.0,4.0,86,0.00,,,0.02,Wunderground v.1.15,2013-01-17 11:45:00,
2013-01-17 06:50:00,40.7,36.5,29.97,NNE,17,3.0,5.0,85,0.00,,,0.02,Wunderground v.1.15,2013-01-17 11:50:00,
2013-01-17 07:00:00,40.7,36.2,29.97,NNE,28,2.0,2.0,84,0.00,,,0.02,Wunderground v.1.15,2013-01-17 12:00:00,
2013-01-17 07:09:00,40.6,35.8,29.97,North,360,3.0,3.0,83,0.00,,,0.02,Wunderground v.1.15,2013-01-17 12:09:00,
2013-01-17 07:14:00,40.6,35.8,29.97,NW,325,3.0,3.0,83,0.00,,,0.02,Wunderground v.1.15,2013-01-17 12:14:00,
2013-01-17 07:19:00,40.5,35.7,29.97,NE,48,2.0,2.0,83,0.00,,,0.02,Wunderground v.1.15,2013-01-17 12:19:00,
2013-01-17 07:25:00,40.5,35.4,29.96,NE,39,3.0,3.0,82,0.00,,,0.02,Wunderground v.1.15,2013-01-17 12:25:00,
2013-01-17 07:30:00,40.4,35.3,29.97,North,356,3.0,3.0,82,0.00,,,0.02,Wunderground v.1.15,2013-01-17 12:30:00,
2013-01-17 07:39:00,40.3,35.8,29.97,NNE,22,2.0,2.0,84,0.00,,,0.02,Wunderground v.1.15,2013-01-17 12:39:00,
2013-01-17 07:49:00,40.2,35.4,29.96,NNW,336,4.0,6.0,83,0.00,,,0.02,Wunderground v.1.15,2013-01-17 12:49:00,
2013-01-17 07:55:00,40.1,35.0,29.96,North,10,3.0,6.0,82,0.00,,,0.02,Wunderground v.1.15,2013-01-17 12:55:00,
2013-01-17 08:00:00,40.2,34.8,29.97,NE,38,3.0,3.0,81,0.00,,,0.02,Wunderground v.1.15,2013-01-17 13:00:00,
2013-01-17 08:09:00,40.3,35.2,29.97,NNE,22,3.0,3.0,82,0.00,,,0.02,Wunderground v.1.15,2013-01-17 13:09:00,
2013-01-17 08:14:00,40.2,35.1,29.96,NNW,327,3.0,4.0,82,0.00,,,0.02,Wunderground v.1.15,2013-01-17 13:14:00,
2013-01-17 08:19:00,40.2,35.4,29.97,NNE,31,4.0,4.0,83,0.00,,,0.02,Wunderground v.1.15,2013-01-17 13:19:00,
2013-01-17 08:24:00,40.1,35.7,29.97,NE,52,3.0,4.0,84,0.00,,,0.02,Wunderground v.1.15,2013-01-17 13:24:00,
2013-01-17 08:30:00,40.0,35.6,29.96,NNE,27,3.0,3.0,84,0.00,,,0.02,Wunderground v.1.15,2013-01-17 13:30:00,
2013-01-17 08:35:00,40.0,35.6,29.95,NNE,17,3.0,3.0,84,0.00,,,0.02,Wunderground v.1.15,2013-01-17 13:35:00,
2013-01-17 08:44:00,40.0,35.3,29.97,North,10,4.0,5.0,83,0.00,,,0.02,Wunderground v.1.15,2013-01-17 13:44:00,
2013-01-17 08:49:00,39.9,35.5,29.96,NW,309,4.0,7.0,84,0.00,,,0.02,Wunderground v.1.15,2013-01-17 13:49:00,
2013-01-17 08:54:00,39.9,35.8,29.97,NE,50,5.0,7.0,85,0.00,,,0.02,Wunderground v.1.15,2013-01-17 13:54:00,
2013-01-17 09:00:00,39.7,35.9,29.97,NNW,347,5.0,5.0,86,0.00,,,0.02,Wunderground v.1.15,2013-01-17 14:00:00,
2013-01-17 09:10:00,39.3,35.8,29.97,NNE,32,5.0,5.0,87,0.00,,,0.03,Wunderground v.1.15,2013-01-17 14:10:00,
2013-01-17 09:15:00,39.1,35.8,29.96,North,3,5.0,6.0,88,0.05,,,0.04,Wunderground v.1.15,2013-01-17 14:15:00,
2013-01-17 09:24:00,38.6,35.9,29.98,NNE,25,4.0,5.0,90,0.21,,,0.06,Wunderground v.1.15,2013-01-17 14:24:00,
2013-01-17 09:34:00,38.0,35.9,29.93,NE,55,6.0,6.0,92,0.19,,,0.08,Wunderground v.1.15,2013-01-17 14:34:00,
2013-01-17 09:39:00,37.9,35.8,29.93,North,352,6.0,7.0,92,0.23,,,0.10,Wunderground v.1.15,2013-01-17 14:39:00,
2013-01-17 09:44:00,37.8,36.0,29.95,North,3,5.0,7.0,93,0.13,,,0.11,Wunderground v.1.15,2013-01-17 14:44:00,
2013-01-17 09:49:00,37.8,36.0,29.95,NNE,28,5.0,7.0,93,0.17,,,0.12,Wunderground v.1.15,2013-01-17 14:49:00,
2013-01-17 09:54:00,37.9,36.1,29.92,NE,54,5.0,7.0,93,0.07,,,0.12,Wunderground v.1.15,2013-01-17 14:54:00,
2013-01-17 10:00:00,37.9,36.1,29.92,NNE,27,6.0,8.0,93,0.13,,,0.14,Wunderground v.1.15,2013-01-17 15:00:00,
2013-01-17 10:10:00,38.0,36.4,29.91,North,6,7.0,7.0,94,0.06,,,0.14,Wunderground v.1.15,2013-01-17 15:10:00,
2013-01-17 10:19:00,38.1,36.5,29.93,NNW,347,6.0,6.0,94,0.00,,,0.14,Wunderground v.1.15,2013-01-17 15:19:00,
2013-01-17 10:24:00,38.2,36.6,29.93,WSW,237,6.0,6.0,94,0.00,,,0.14,Wunderground v.1.15,2013-01-17 15:24:00,
2013-01-17 10:29:00,38.2,36.6,29.92,North,10,5.0,5.0,94,0.00,,,0.14,Wunderground v.1.15,2013-01-17 15:29:00,
2013-01-17 10:39:00,38.3,36.7,29.91,NE,39,5.0,5.0,94,0.12,,,0.16,Wunderground v.1.15,2013-01-17 15:39:00,
2013-01-17 10:44:00,38.4,37.1,29.91,NE,47,6.0,7.0,95,0.11,,,0.16,Wunderground v.1.15,2013-01-17 15:44:00,
2013-01-17 10:50:00,38.4,37.1,29.90,NE,42,6.0,6.0,95,0.06,,,0.16,Wunderground v.1.15,2013-01-17 15:50:00,
2013-01-17 11:00:00,38.6,37.3,29.90,NNE,19,6.0,6.0,95,0.00,,,0.16,Wunderground v.1.15,2013-01-17 16:00:00,
2013-01-17 11:09:00,38.7,37.4,29.91,NNW,338,5.0,9.0,95,0.00,,,0.16,Wunderground v.1.15,2013-01-17 16:09:00,
2013-01-17 11:14:00,38.8,37.5,29.91,NNE,22,6.0,9.0,95,0.00,,,0.17,Wunderground v.1.15,2013-01-17 16:14:00,
2013-01-17 11:19:00,38.9,37.6,29.91,ENE,57,7.0,7.0,95,0.08,,,0.18,Wunderground v.1.15,2013-01-17 16:19:00,
2013-01-17 11:24:00,39.0,37.7,29.89,North,356,8.0,8.0,95,0.08,,,0.18,Wunderground v.1.15,2013-01-17 16:24:00,
2013-01-17 11:30:00,39.1,37.8,29.88,NNE,25,7.0,7.0,95,0.05,,,0.18,Wunderground v.1.15,2013-01-17 16:30:00,
2013-01-17 11:35:00,39.3,38.0,29.89,WNW,287,7.0,7.0,95,0.04,,,0.18,Wunderground v.1.15,2013-01-17 16:35:00,
2013-01-17 11:44:00,39.3,38.0,29.88,East,88,7.0,7.0,95,0.00,,,0.18,Wunderground v.1.15,2013-01-17 16:44:00,
2013-01-17 11:49:00,39.4,38.1,29.89,North,7,7.0,7.0,95,0.00,,,0.18,Wunderground v.1.15,2013-01-17 16:49:00,
2013-01-17 11:54:00,39.4,38.1,29.89,NNE,25,6.0,9.0,95,0.00,,,0.18,Wunderground v.1.15,2013-01-17 16:54:00,
2013-01-17 12:00:00,39.4,37.8,29.89,NNE,20,6.0,6.0,94,0.00,,,0.18,Wunderground v.1.15,2013-01-17 17:00:00,
2013-01-17 12:10:00,39.3,37.4,29.88,ENE,72,7.0,7.0,93,0.00,,,0.18,Wunderground v.1.15,2013-01-17 17:10:00,
2013-01-17 12:15:00,39.4,37.5,29.88,NNE,32,7.0,9.0,93,0.00,,,0.18,Wunderground v.1.15,2013-01-17 17:15:00,
2013-01-17 12:20:00,39.5,37.4,29.88,North,352,8.0,8.0,92,0.00,,,0.18,Wunderground v.1.15,2013-01-17 17:20:00,
2013-01-17 12:29:00,39.7,37.3,29.86,NNE,21,8.0,9.0,91,0.00,,,0.18,Wunderground v.1.15,2013-01-17 17:29:00,
2013-01-17 12:34:00,39.9,37.5,29.87,North,352,9.0,12.0,91,0.00,,,0.18,Wunderground v.1.15,2013-01-17 17:34:00,
2013-01-17 12:39:00,40.0,37.6,29.85,ENE,78,9.0,9.0,91,0.00,,,0.18,Wunderground v.1.15,2013-01-17 17:39:00,
2013-01-17 12:44:00,40.1,37.7,29.83,NNE,25,9.0,10.0,91,0.00,,,0.18,Wunderground v.1.15,2013-01-17 17:44:00,
2013-01-17 12:49:00,40.3,37.9,29.82,NE,43,9.0,9.0,91,0.00,,,0.18,Wunderground v.1.15,2013-01-17 17:49:00,
2013-01-17 12:54:00,40.4,38.0,29.82,NE,54,7.0,9.0,91,0.00,,,0.18,Wunderground v.1.15,2013-01-17 17:54:00,
2013-01-17 13:00:00,40.6,37.9,29.82,ENE,61,7.0,10.0,90,0.00,,,0.18,Wunderground v.1.15,2013-01-17 18:00:00,
2013-01-17 13:09:00,40.8,38.1,29.80,NE,50,7.0,7.0,90,0.00,,,0.18,Wunderground v.1.15,2013-01-17 18:09:00,
2013-01-17 13:14:00,41.0,38.3,29.81,NNE,18,7.0,9.0,90,0.00,,,0.18,Wunderground v.1.15,2013-01-17 18:14:00,
2013-01-17 13:19:00,41.1,38.1,29.81,SE,128,7.0,7.0,89,0.00,,,0.18,Wunderground v.1.15,2013-01-17 18:19:00,
2013-01-17 13:24:00,41.0,38.0,29.81,North,359,7.0,7.0,89,0.00,,,0.18,Wunderground v.1.15,2013-01-17 18:24:00,
2013-01-17 13:29:00,40.9,37.9,29.82,NNE,17,6.0,6.0,89,0.00,,,0.18,Wunderground v.1.15,2013-01-17 18:29:00,
2013-01-17 13:34:00,40.9,37.6,29.82,NE,51,5.0,6.0,88,0.00,,,0.18,Wunderground v.1.15,2013-01-17 18:34:00,
2013-01-17 13:40:00,40.8,37.5,29.82,NNW,342,5.0,5.0,88,0.00,,,0.18,Wunderground v.1.15,2013-01-17 18:40:00,
2013-01-17 13:49:00,40.8,36.6,29.83,ENE,73,6.0,6.0,85,0.00,,,0.18,Wunderground v.1.15,2013-01-17 18:49:00,
2013-01-17 13:54:00,40.9,36.4,29.84,NNE,21,5.0,6.0,84,0.00,,,0.18,Wunderground v.1.15,2013-01-17 18:54:00,
2013-01-17 14:00:00,41.0,36.8,29.84,North,5,5.0,10.0,85,0.00,,,0.18,Wunderground v.1.15,2013-01-17 19:00:00,
2013-01-17 14:09:00,41.3,36.5,29.84,NNE,30,5.0,6.0,83,0.00,,,0.18,Wunderground v.1.15,2013-01-17 19:09:00,
2013-01-17 14:14:00,41.3,36.5,29.84,NE,56,5.0,6.0,83,0.00,,,0.18,Wunderground v.1.15,2013-01-17 19:14:00,
2013-01-17 14:20:00,41.3,36.8,29.84,NNE,19,6.0,9.0,84,0.00,,,0.18,Wunderground v.1.15,2013-01-17 19:20:00,
2013-01-17 14:29:00,41.0,36.8,29.85,North,5,6.0,6.0,85,0.00,,,0.19,Wunderground v.1.15,2013-01-17 19:29:00,
2013-01-17 14:34:00,40.8,36.9,29.85,North,8,7.0,7.0,86,0.06,,,0.20,Wunderground v.1.15,2013-01-17 19:34:00,
2013-01-17 14:39:00,40.6,36.4,29.84,NNE,22,7.0,7.0,85,0.06,,,0.20,Wunderground v.1.15,2013-01-17 19:39:00,
2013-01-17 14:44:00,40.4,36.5,29.85,North,352,8.0,8.0,86,0.05,,,0.21,Wunderground v.1.15,2013-01-17 19:44:00,
2013-01-17 14:49:00,40.2,36.6,29.85,NE,49,7.0,7.0,87,0.05,,,0.21,Wunderground v.1.15,2013-01-17 19:49:00,
2013-01-17 14:54:00,40.0,36.4,29.85,West,274,6.0,7.0,87,0.09,,,0.22,Wunderground v.1.15,2013-01-17 19:54:00,
2013-01-17 15:00:00,39.5,36.2,29.85,North,11,6.0,6.0,88,0.07,,,0.22,Wunderground v.1.15,2013-01-17 20:00:00,
2013-01-17 15:09:00,38.7,35.5,29.87,SSE,152,6.0,6.0,88,0.00,,,0.22,Wunderground v.1.15,2013-01-17 20:09:00,
2013-01-17 15:14:00,38.2,35.2,29.87,North,356,6.0,6.0,89,0.00,,,0.23,Wunderground v.1.15,2013-01-17 20:14:00,
2013-01-17 15:19:00,37.7,35.0,29.88,NE,40,6.0,6.0,90,0.10,,,0.24,Wunderground v.1.15,2013-01-17 20:19:00,
2013-01-17 15:24:00,37.4,34.7,29.89,NE,40,6.0,6.0,90,0.09,,,0.24,Wunderground v.1.15,2013-01-17 20:24:00,
2013-01-17 15:29:00,37.3,35.2,29.89,NE,34,6.0,6.0,92,0.05,,,0.24,Wunderground v.1.15,2013-01-17 20:29:00,
2013-01-17 15:35:00,37.2,35.1,29.90,NNE,15,5.0,6.0,92,0.05,,,0.25,Wunderground v.1.15,2013-01-17 20:35:00,
2013-01-17 15:40:00,37.2,35.1,29.90,NNE,32,5.0,8.0,92,0.05,,,0.25,Wunderground v.1.15,2013-01-17 20:40:00,
2013-01-17 15:49:00,37.5,35.4,29.91,ENE,68,7.0,8.0,92,0.00,,,0.26,Wunderground v.1.15,2013-01-17 20:49:00,
2013-01-17 15:54:00,37.7,35.6,29.91,NE,44,6.0,9.0,92,0.00,,,0.26,Wunderground v.1.15,2013-01-17 20:54:00,
2013-01-17 16:00:00,37.8,36.0,29.92,North,358,7.0,8.0,93,0.06,,,0.27,Wunderground v.1.15,2013-01-17 21:00:00,
2013-01-17 16:09:00,38.0,35.9,29.93,NNE,21,7.0,9.0,92,0.10,,,0.28,Wunderground v.1.15,2013-01-17 21:09:00,
2013-01-17 16:15:00,38.0,35.9,29.93,North,2,8.0,9.0,92,0.07,,,0.29,Wunderground v.1.15,2013-01-17 21:15:00,
2013-01-17 16:25:00,38.1,36.0,29.95,WNW,301,6.0,8.0,92,0.09,,,0.30,Wunderground v.1.15,2013-01-17 21:25:00,
2013-01-17 16:30:00,38.2,36.1,29.95,North,352,5.0,5.0,92,0.05,,,0.30,Wunderground v.1.15,2013-01-17 21:30:00,
2013-01-17 16:39:00,38.4,36.6,29.97,NNE,19,3.0,6.0,93,0.00,,,0.30,Wunderground v.1.15,2013-01-17 21:39:00,
2013-01-17 16:44:00,38.6,36.5,29.97,NW,325,4.0,8.0,92,0.00,,,0.30,Wunderground v.1.15,2013-01-17 21:44:00,
2013-01-17 16:49:00,38.8,36.1,29.98,NE,55,6.0,8.0,90,0.00,,,0.30,Wunderground v.1.15,2013-01-17 21:49:00,
2013-01-17 17:00:00,39.2,35.7,29.99,North,10,7.0,7.0,87,0.00,,,0.30,Wunderground v.1.15,2013-01-17 22:00:00,
2013-01-17 17:09:00,39.5,35.7,30.00,NNW,347,6.0,6.0,86,0.00,,,0.30,Wunderground v.1.15,2013-01-17 22:09:00,
2013-01-17 17:15:00,39.6,35.5,30.01,NW,320,5.0,6.0,85,0.00,,,0.30,Wunderground v.1.15,2013-01-17 22:15:00,
2013-01-17 17:20:00,39.7,35.3,30.02,NE,35,5.0,5.0,84,0.00,,,0.30,Wunderground v.1.15,2013-01-17 22:20:00,
2013-01-17 17:29:00,39.8,35.1,30.04,NE,34,5.0,7.0,83,0.00,,,0.30,Wunderground v.1.15,2013-01-17 22:29:00,
2013-01-17 17:34:00,39.9,35.2,30.05,NW,315,5.0,7.0,83,0.00,,,0.30,Wunderground v.1.15,2013-01-17 22:34:00,
2013-01-17 17:39:00,39.9,35.5,30.06,NE,56,3.0,3.0,84,0.00,,,0.30,Wunderground v.1.15,2013-01-17 22:39:00,
2013-01-17 17:44:00,39.9,35.2,30.06,NE,38,3.0,7.0,83,0.00,,,0.30,Wunderground v.1.15,2013-01-17 22:44:00,
2013-01-17 17:49:00,39.9,34.9,30.07,NNE,15,4.0,6.0,82,0.00,,,0.30,Wunderground v.1.15,2013-01-17 22:49:00,
2013-01-17 17:54:00,40.0,34.6,30.07,North,3,4.0,7.0,81,0.00,,,0.30,Wunderground v.1.15,2013-01-17 22:54:00,
2013-01-17 18:00:00,40.1,34.4,30.08,NE,36,4.0,4.0,80,0.00,,,0.30,Wunderground v.1.15,2013-01-17 23:00:00,
2013-01-17 18:09:00,40.1,34.7,30.10,NE,38,3.0,3.0,81,0.00,,,0.30,Wunderground v.1.15,2013-01-17 23:09:00,
2013-01-17 18:14:00,40.0,34.6,30.10,NW,316,4.0,7.0,81,0.00,,,0.30,Wunderground v.1.15,2013-01-17 23:14:00,
2013-01-17 18:19:00,40.0,34.0,30.11,NE,52,4.0,4.0,79,0.00,,,0.30,Wunderground v.1.15,2013-01-17 23:19:00,
2013-01-17 18:24:00,40.1,33.8,30.12,NNE,29,5.0,5.0,78,0.00,,,0.30,Wunderground v.1.15,2013-01-17 23:24:00,
2013-01-17 18:29:00,40.1,33.5,30.12,SSW,205,5.0,5.0,77,0.00,,,0.30,Wunderground v.1.15,2013-01-17 23:29:00,
2013-01-17 18:34:00,40.0,33.4,30.13,NE,49,4.0,7.0,77,0.00,,,0.30,Wunderground v.1.15,2013-01-17 23:34:00,
2013-01-17 18:44:00,39.9,32.9,30.14,ESE,117,5.0,9.0,76,0.00,,,0.30,Wunderground v.1.15,2013-01-17 23:44:00,
2013-01-17 18:50:00,39.7,33.1,30.14,ENE,67,5.0,7.0,77,0.00,,,0.30,Wunderground v.1.15,2013-01-17 23:50:00,
2013-01-17 19:00:00,39.5,32.9,30.16,NE,46,5.0,5.0,77,0.00,,,0.30,Wunderground v.1.15,2013-01-18 00:00:00,
2013-01-17 19:09:00,39.5,32.2,30.18,NNE,24,4.0,4.0,75,0.00,,,0.30,Wunderground v.1.15,2013-01-18 00:09:00,
2013-01-17 19:14:00,39.5,32.6,30.19,WSW,242,3.0,4.0,76,0.00,,,0.30,Wunderground v.1.15,2013-01-18 00:14:00,
2013-01-17 19:19:00,39.4,32.5,30.19,East,98,3.0,3.0,76,0.00,,,0.30,Wunderground v.1.15,2013-01-18 00:19:00,
2013-01-17 19:25:00,39.3,32.7,30.19,NE,56,4.0,4.0,77,0.00,,,0.30,Wunderground v.1.15,2013-01-18 00:25:00,
2013-01-17 19:34:00,39.2,32.6,30.21,WSW,257,2.0,2.0,77,0.00,,,0.30,Wunderground v.1.15,2013-01-18 00:34:00,
2013-01-17 19:39:00,39.1,32.8,30.22,NW,304,3.0,3.0,78,0.00,,,0.30,Wunderground v.1.15,2013-01-18 00:39:00,
2013-01-17 19:44:00,39.0,32.7,30.23,WNW,283,3.0,3.0,78,0.00,,,0.30,Wunderground v.1.15,2013-01-18 00:44:00,
2013-01-17 19:49:00,39.0,32.7,30.22,NW,318,3.0,5.0,78,0.00,,,0.30,Wunderground v.1.15,2013-01-18 00:49:00,
2013-01-17 19:54:00,38.9,32.6,30.23,East,80,2.0,5.0,78,0.00,,,0.30,Wunderground v.1.15,2013-01-18 00:54:00,
2013-01-17 20:00:00,38.8,32.5,30.23,East,87,2.0,2.0,78,0.00,,,0.30,Wunderground v.1.15,2013-01-18 01:00:00,
2013-01-17 20:09:00,38.8,32.5,30.23,WNW,289,4.0,6.0,78,0.00,,,0.30,Wunderground v.1.15,2013-01-18 01:09:00,
2013-01-17 20:14:00,38.8,32.8,30.24,NNE,22,3.0,6.0,79,0.00,,,0.30,Wunderground v.1.15,2013-01-18 01:14:00,
2013-01-17 20:19:00,38.7,32.7,30.23,ENE,67,3.0,3.0,79,0.00,,,0.30,Wunderground v.1.15,2013-01-18 01:19:00,
2013-01-17 20:24:00,38.6,32.6,30.23,NE,44,2.0,3.0,79,0.00,,,0.30,Wunderground v.1.15,2013-01-18 01:24:00,
2013-01-17 20:29:00,38.5,32.6,30.23,ENE,67,2.0,2.0,79,0.00,,,0.30,Wunderground v.1.15,2013-01-18 01:29:00,
2013-01-17 20:34:00,38.4,32.5,30.24,NNE,31,3.0,3.0,79,0.00,,,0.30,Wunderground v.1.15,2013-01-18 01:34:00,
2013-01-17 20:40:00,38.3,32.4,30.24,NNE,21,3.0,3.0,79,0.00,,,0.30,Wunderground v.1.15,2013-01-18 01:40:00,
2013-01-17 20:49:00,38.2,32.6,30.25,NNE,25,3.0,3.0,80,0.00,,,0.30,Wunderground v.1.15,2013-01-18 01:49:00,
2013-01-17 20:54:00,38.1,32.5,30.25,NW,322,4.0,4.0,80,0.00,,,0.30,Wunderground v.1.15,2013-01-18 01:54:00,
2013-01-17 21:00:00,38.0,32.4,30.25,NNE,19,3.0,3.0,80,0.00,,,0.30,Wunderground v.1.15,2013-01-18 02:00:00,
2013-01-17 21:10:00,37.9,32.3,30.26,NNW,342,3.0,3.0,80,0.00,,,0.30,Wunderground v.1.15,2013-01-18 02:10:00,
2013-01-17 21:19:00,37.9,32.3,30.25,NNE,25,3.0,3.0,80,0.00,,,0.30,Wunderground v.1.15,2013-01-18 02:19:00,
2013-01-17 21:24:00,37.8,32.2,30.26,East,84,3.0,4.0,80,0.00,,,0.30,Wunderground v.1.15,2013-01-18 02:24:00,
2013-01-17 21:29:00,37.8,31.9,30.26,ENE,77,3.0,3.0,79,0.00,,,0.30,Wunderground v.1.15,2013-01-18 02:29:00,
2013-01-17 21:39:00,37.7,31.8,30.27,West,277,3.0,6.0,79,0.00,,,0.30,Wunderground v.1.15,2013-01-18 02:39:00,
2013-01-17 21:44:00,37.7,31.8,30.27,SW,223,3.0,6.0,79,0.00,,,0.30,Wunderground v.1.15,2013-01-18 02:44:00,
2013-01-17 21:49:00,37.7,31.5,30.27,SSE,147,3.0,3.0,78,0.00,,,0.30,Wunderground v.1.15,2013-01-18 02:49:00,
2013-01-17 21:54:00,37.6,31.4,30.27,ENE,68,3.0,3.0,78,0.00,,,0.30,Wunderground v.1.15,2013-01-18 02:54:00,
2013-01-17 22:00:00,37.5,31.3,30.27,NE,36,3.0,3.0,78,0.00,,,0.30,Wunderground v.1.15,2013-01-18 03:00:00,
2013-01-17 22:10:00,37.4,31.2,30.28,NNE,25,3.0,3.0,78,0.00,,,0.30,Wunderground v.1.15,2013-01-18 03:10:00,
2013-01-17 22:19:00,37.2,30.7,30.30,West,279,2.0,2.0,77,0.00,,,0.30,Wunderground v.1.15,2013-01-18 03:19:00,
2013-01-17 22:24:00,37.1,30.6,30.30,NE,45,1.0,4.0,77,0.00,,,0.30,Wunderground v.1.15,2013-01-18 03:24:00,
2013-01-17 22:29:00,37.1,30.6,30.30,NNE,21,2.0,2.0,77,0.00,,,0.30,Wunderground v.1.15,2013-01-18 03:29:00,
2013-01-17 22:34:00,36.9,30.4,30.30,South,176,2.0,2.0,77,0.00,,,0.30,Wunderground v.1.15,2013-01-18 03:34:00,
2013-01-17 22:39:00,36.9,30.4,30.30,NE,46,1.0,2.0,77,0.00,,,0.30,Wunderground v.1.15,2013-01-18 03:39:00,
2013-01-17 22:44:00,36.8,29.9,30.31,East,94,2.0,2.0,76,0.00,,,0.30,Wunderground v.1.15,2013-01-18 03:44:00,
2013-01-17 22:50:00,36.8,29.9,30.31,NNW,347,3.0,3.0,76,0.00,,,0.30,Wunderground v.1.15,2013-01-18 03:50:00,
2013-01-17 22:59:00,36.7,30.2,30.32,NNE,18,2.0,2.0,77,0.00,,,0.30,Wunderground v.1.15,2013-01-18 03:59:00,
2013-01-17 23:09:00,36.4,29.9,30.32,North,1,1.0,1.0,77,0.00,,,0.30,Wunderground v.1.15,2013-01-18 04:09:00,
2013-01-17 23:14:00,36.2,29.7,30.33,NE,42,1.0,1.0,77,0.00,,,0.30,Wunderground v.1.15,2013-01-18 04:14:00,
2013-01-17 23:19:00,36.1,29.6,30.33,North,356,1.0,1.0,77,0.00,,,0.30,Wunderground v.1.15,2013-01-18 04:19:00,
2013-01-17 23:24:00,36.0,30.1,30.33,NNE,17,0.0,1.0,79,0.00,,,0.30,Wunderground v.1.15,2013-01-18 04:24:00,
2013-01-17 23:29:00,35.8,30.2,30.33,NNE,17,0.0,1.0,80,0.00,,,0.30,Wunderground v.1.15,2013-01-18 04:29:00,
2013-01-17 23:35:00,35.5,29.3,30.33,NE,38,1.0,1.0,78,0.00,,,0.30,Wunderground v.1.15,2013-01-18 04:35:00,
2013-01-17 23:44:00,35.2,28.7,30.34,North,11,2.0,4.0,77,0.00,,,0.30,Wunderground v.1.15,2013-01-18 04:44:00,
2013-01-17 23:54:00,35.0,28.8,30.34,NNE,14,1.0,2.0,78,0.00,,,0.30,Wunderground v.1.15,2013-01-18 04:54:00,